createdAt,value
2023-06-08T00:02:10.184Z,24.84
2023-06-08T00:04:36.695Z,24.85
2023-06-08T00:07:09.834Z,24.85
2023-06-08T00:09:37.312Z,24.84
2023-06-08T00:12:04.296Z,24.84
2023-06-08T00:14:30.951Z,24.87
2023-06-08T00:16:58.485Z,24.85
2023-06-08T00:19:26.325Z,24.85
2023-06-08T00:21:53.690Z,24.88
2023-06-08T00:24:20.964Z,24.89
2023-06-08T00:26:47.470Z,24.89
2023-06-08T00:29:13.922Z,24.86
2023-06-08T00:31:40.411Z,24.89
2023-06-08T00:34:08.826Z,24.90
2023-06-08T00:36:35.476Z,24.91
2023-06-08T00:39:01.883Z,24.90
2023-06-08T00:41:28.819Z,24.90
2023-06-08T00:43:55.374Z,24.89
2023-06-08T00:46:23.020Z,24.90
2023-06-08T00:48:49.508Z,24.88
2023-06-08T00:51:17.256Z,24.88
2023-06-08T00:53:43.744Z,24.87
2023-06-08T00:56:12.385Z,24.85
2023-06-08T00:58:38.999Z,24.84
2023-06-08T01:01:05.995Z,24.83
2023-06-08T01:03:39.499Z,24.83
2023-06-08T01:06:09.150Z,24.84
2023-06-08T01:08:53.458Z,24.85
2023-06-08T01:11:28.355Z,24.82
2023-06-08T01:14:01.572Z,24.82
2023-06-08T01:16:32.500Z,24.81
2023-06-08T01:19:05.310Z,24.80
2023-06-08T01:21:43.611Z,24.82
2023-06-08T01:24:21.251Z,24.81
2023-06-08T01:26:50.735Z,24.82
2023-06-08T01:29:26.764Z,24.81
2023-06-08T01:31:53.367Z,24.81
2023-06-08T01:34:20.546Z,24.81
2023-06-08T01:36:53.142Z,24.81
2023-06-08T01:39:19.496Z,24.84
2023-06-08T01:41:47.262Z,24.86
2023-06-08T01:44:16.218Z,24.85
2023-06-08T01:46:44.060Z,24.84
2023-06-08T01:49:11.013Z,24.83
2023-06-08T01:51:37.906Z,24.82
2023-06-08T01:54:05.742Z,24.82
2023-06-08T01:56:33.075Z,24.82
2023-06-08T01:58:59.547Z,24.82
2023-06-08T02:01:26.049Z,24.81
2023-06-08T02:03:52.784Z,24.80
2023-06-08T02:06:19.338Z,24.80
2023-06-08T02:08:46.667Z,24.80
2023-06-08T02:11:13.421Z,24.79
2023-06-08T02:13:43.188Z,24.79
2023-06-08T02:16:10.043Z,24.79
2023-06-08T02:18:40.573Z,24.79
2023-06-08T02:21:10.972Z,24.79
2023-06-08T02:23:38.082Z,24.77
2023-06-08T02:26:05.354Z,24.76
2023-06-08T02:28:31.843Z,24.78
2023-06-08T02:30:58.573Z,24.77
2023-06-08T02:33:25.237Z,24.77
2023-06-08T02:35:51.674Z,24.77
2023-06-08T02:38:18.098Z,24.79
2023-06-08T02:40:44.531Z,24.81
2023-06-08T02:43:11.104Z,24.83
2023-06-08T02:45:38.916Z,24.83
2023-06-08T02:48:05.561Z,24.85
2023-06-08T02:50:32.418Z,24.86
2023-06-08T02:52:58.920Z,24.84
2023-06-08T02:55:25.430Z,24.83
2023-06-08T02:57:53.171Z,24.80
2023-06-08T03:00:21.408Z,24.81
2023-06-08T03:02:47.959Z,24.80
2023-06-08T03:05:14.782Z,24.80
2023-06-08T03:07:42.116Z,24.79
2023-06-08T03:10:09.115Z,24.78
2023-06-08T03:12:35.617Z,24.78
2023-06-08T03:15:02.025Z,24.78
2023-06-08T03:17:28.506Z,24.78
2023-06-08T03:19:55.856Z,24.77
2023-06-08T03:22:22.274Z,24.79
2023-06-08T03:24:50.048Z,24.78
2023-06-08T03:27:17.538Z,24.79
2023-06-08T03:29:43.956Z,24.79
2023-06-08T03:32:10.520Z,24.79
2023-06-08T03:34:38.579Z,24.79
2023-06-08T03:37:05.128Z,24.78
2023-06-08T03:39:31.576Z,24.78
2023-06-08T03:41:57.985Z,24.78
2023-06-08T03:44:24.456Z,24.78
2023-06-08T03:46:51.038Z,24.78
2023-06-08T03:49:17.584Z,24.78
2023-06-08T03:51:44.089Z,24.80
2023-06-08T03:54:10.618Z,24.80
2023-06-08T03:56:37.294Z,24.80
2023-06-08T03:59:05.132Z,24.81
2023-06-08T04:01:32.050Z,24.83
2023-06-08T04:03:58.793Z,24.84
2023-06-08T04:06:25.911Z,24.85
2023-06-08T04:08:52.957Z,24.88
2023-06-08T04:11:19.445Z,24.85
2023-06-08T04:13:45.957Z,24.85
2023-06-08T04:16:12.652Z,24.84
2023-06-08T04:18:43.095Z,24.83
2023-06-08T04:21:09.683Z,24.84
2023-06-08T04:23:37.274Z,24.84
2023-06-08T04:26:04.403Z,24.83
2023-06-08T04:28:30.838Z,24.80
2023-06-08T04:31:00.032Z,24.81
2023-06-08T04:33:27.438Z,24.81
2023-06-08T04:35:53.858Z,24.81
2023-06-08T04:38:21.229Z,24.80
2023-06-08T04:40:53.254Z,24.78
2023-06-08T04:43:22.203Z,24.79
2023-06-08T04:45:58.510Z,24.78
2023-06-08T04:48:28.881Z,24.78
2023-06-08T04:51:03.425Z,24.79
2023-06-08T04:53:31.676Z,24.79
2023-06-08T04:55:58.387Z,24.79
2023-06-08T04:58:25.526Z,24.79
2023-06-08T05:00:52.015Z,24.81
2023-06-08T05:03:18.602Z,24.80
2023-06-08T05:05:44.993Z,24.81
2023-06-08T05:08:11.492Z,24.79
2023-06-08T05:10:37.974Z,24.78
2023-06-08T05:13:04.399Z,24.78
2023-06-08T05:15:32.232Z,24.78
2023-06-08T05:17:59.078Z,24.78
2023-06-08T05:20:26.117Z,24.78
2023-06-08T05:22:53.222Z,24.82
2023-06-08T05:25:20.260Z,24.81
2023-06-08T05:27:46.688Z,24.82
2023-06-08T05:30:13.232Z,24.81
2023-06-08T05:32:39.687Z,24.82
2023-06-08T05:35:06.445Z,24.82
2023-06-08T05:37:33.021Z,24.81
2023-06-08T05:39:59.504Z,24.83
2023-06-08T05:42:25.952Z,24.83
2023-06-08T05:44:52.384Z,24.84
2023-06-08T05:47:18.775Z,24.87
2023-06-08T05:49:45.306Z,24.88
2023-06-08T05:52:11.730Z,24.89
2023-06-08T05:54:38.152Z,24.88
2023-06-08T05:57:04.663Z,24.88
2023-06-08T05:59:31.112Z,24.87
2023-06-08T06:01:57.579Z,24.85
2023-06-08T06:04:35.952Z,24.87
2023-06-08T06:07:05.073Z,24.87
2023-06-08T06:09:31.496Z,24.84
2023-06-08T06:11:57.946Z,24.87
2023-06-08T06:14:24.372Z,24.87
2023-06-08T06:17:06.305Z,24.87
2023-06-08T06:19:41.179Z,24.85
2023-06-08T06:22:08.838Z,24.87
2023-06-08T06:24:35.724Z,24.86
2023-06-08T06:27:02.556Z,24.89
2023-06-08T06:29:29.151Z,24.87
2023-06-08T06:31:55.704Z,24.88
2023-06-08T06:34:22.186Z,24.88
2023-06-08T06:36:48.957Z,24.88
2023-06-08T06:39:15.851Z,24.88
2023-06-08T06:41:42.588Z,24.88
2023-06-08T06:44:09.406Z,24.87
2023-06-08T06:46:36.093Z,24.88
2023-06-08T06:49:02.563Z,24.87
2023-06-08T06:51:29.009Z,24.90
2023-06-08T06:53:55.432Z,24.92
2023-06-08T06:56:22.397Z,24.93
2023-06-08T06:58:48.915Z,24.93
2023-06-08T07:01:18.386Z,24.92
2023-06-08T07:03:45.814Z,24.92
2023-06-08T07:06:12.884Z,24.93
2023-06-08T07:08:39.348Z,24.92
2023-06-08T07:11:06.257Z,24.92
2023-06-08T07:13:32.712Z,24.93
2023-06-08T07:15:59.726Z,24.93
2023-06-08T07:18:26.225Z,24.93
2023-06-08T07:20:52.654Z,24.93
2023-06-08T07:23:38.770Z,24.92
2023-06-08T07:26:27.167Z,24.93
2023-06-08T07:28:54.924Z,24.93
2023-06-08T07:31:21.898Z,24.93
2023-06-08T07:33:48.366Z,24.94
2023-06-08T07:36:14.826Z,24.93
2023-06-08T07:38:41.286Z,24.93
2023-06-08T07:41:07.899Z,24.90
2023-06-08T07:43:34.515Z,24.89
2023-06-08T07:46:00.979Z,24.89
2023-06-08T07:48:27.460Z,24.87
2023-06-08T07:50:54.265Z,24.85
2023-06-08T07:53:21.859Z,24.85
2023-06-08T07:55:48.306Z,24.83
2023-06-08T07:58:14.881Z,24.83
2023-06-08T08:00:41.802Z,24.81
2023-06-08T08:03:08.452Z,24.80
2023-06-08T08:05:35.074Z,24.82
2023-06-08T08:08:01.540Z,24.81
2023-06-08T08:10:27.987Z,24.81
2023-06-08T08:12:54.426Z,24.81
2023-06-08T08:15:23.006Z,24.82
2023-06-08T08:17:49.878Z,24.81
2023-06-08T08:20:16.394Z,24.81
2023-06-08T08:22:42.819Z,24.82
2023-06-08T08:25:09.589Z,24.82
2023-06-08T08:27:36.210Z,24.82
2023-06-08T08:30:03.252Z,24.83
2023-06-08T08:32:29.878Z,24.82
2023-06-08T08:34:56.335Z,24.84
2023-06-08T08:37:22.807Z,24.84
2023-06-08T08:39:49.453Z,24.84
2023-06-08T08:42:19.634Z,24.84
2023-06-08T08:44:47.199Z,24.83
2023-06-08T08:47:14.569Z,24.83
2023-06-08T08:49:43.384Z,24.83
2023-06-08T08:52:10.853Z,24.85
2023-06-08T08:54:39.895Z,24.85
2023-06-08T08:57:10.591Z,24.85
2023-06-08T08:59:37.852Z,24.85
2023-06-08T09:02:05.244Z,24.85
2023-06-08T09:04:32.087Z,24.85
2023-06-08T09:06:58.607Z,24.85
2023-06-08T09:09:25.118Z,24.86
2023-06-08T09:11:59.363Z,24.86
2023-06-08T09:14:26.220Z,24.87
2023-06-08T09:16:53.956Z,24.87
2023-06-08T09:19:20.993Z,24.88
2023-06-08T09:21:47.731Z,24.88
2023-06-08T09:24:20.521Z,24.88
2023-06-08T09:26:48.450Z,24.89
2023-06-08T09:29:31.833Z,24.89
2023-06-08T09:32:00.022Z,24.92
2023-06-08T09:34:26.856Z,24.91
2023-06-08T09:37:04.801Z,24.91
2023-06-08T09:39:38.581Z,24.92
2023-06-08T09:42:05.256Z,24.92
2023-06-08T09:44:33.116Z,24.91
2023-06-08T09:46:59.901Z,24.93
2023-06-08T09:49:26.433Z,24.93
2023-06-08T09:51:57.943Z,24.94
2023-06-08T09:54:24.907Z,24.95
2023-06-08T09:56:54.800Z,24.95
2023-06-08T09:59:24.019Z,24.95
2023-06-08T10:01:58.787Z,24.95
2023-06-08T10:04:33.530Z,24.97
2023-06-08T10:07:19.261Z,24.97
2023-06-08T10:09:48.675Z,24.98
2023-06-08T10:12:15.706Z,25.01
2023-06-08T10:14:42.292Z,25.04
2023-06-08T10:17:09.069Z,25.03
2023-06-08T10:19:37.192Z,25.07
2023-06-08T10:22:04.416Z,25.07
2023-06-08T10:24:31.852Z,25.11
2023-06-08T10:27:12.042Z,25.12
2023-06-08T10:29:39.107Z,25.16
2023-06-08T10:32:06.601Z,25.15
2023-06-08T10:34:39.520Z,25.15
2023-06-08T10:37:06.056Z,25.12
2023-06-08T10:39:46.313Z,25.12
2023-06-08T10:42:18.046Z,25.14
2023-06-08T10:44:44.556Z,25.14
2023-06-08T10:47:13.451Z,25.17
2023-06-08T10:49:40.925Z,25.17
2023-06-08T10:52:08.264Z,25.16
2023-06-08T10:54:48.875Z,25.16
2023-06-08T10:57:35.298Z,25.17
2023-06-08T11:00:02.283Z,25.17
2023-06-08T11:02:33.908Z,25.18
2023-06-08T11:05:00.688Z,25.19
2023-06-08T11:07:27.253Z,25.21
2023-06-08T11:09:53.813Z,25.24
2023-06-08T11:12:24.836Z,25.23
2023-06-08T11:14:51.473Z,25.23
2023-06-08T11:17:17.922Z,25.22
2023-06-08T11:19:45.107Z,25.21
2023-06-08T11:22:14.686Z,25.24
2023-06-08T11:24:43.125Z,25.24
2023-06-08T11:27:19.830Z,25.23
2023-06-08T11:29:47.297Z,25.24
2023-06-08T11:32:14.761Z,25.25
2023-06-08T11:34:50.834Z,25.26
2023-06-08T11:37:18.822Z,25.24
2023-06-08T11:39:45.893Z,25.25
2023-06-08T11:42:12.736Z,25.28
2023-06-08T11:44:39.304Z,25.29
2023-06-08T11:47:06.831Z,25.33
2023-06-08T11:49:52.433Z,25.33
2023-06-08T11:52:19.207Z,25.31
2023-06-08T11:54:46.356Z,25.29
2023-06-08T11:57:12.738Z,25.28
2023-06-08T11:59:41.568Z,25.29
2023-06-08T12:02:11.268Z,25.28
2023-06-08T12:04:38.176Z,25.32
2023-06-08T12:07:12.097Z,25.36
2023-06-08T12:09:38.916Z,25.34
2023-06-08T12:12:10.042Z,25.33
2023-06-08T12:14:37.010Z,25.37
2023-06-08T12:17:06.392Z,25.37
2023-06-08T12:19:33.454Z,25.39
2023-06-08T12:22:00.133Z,25.41
2023-06-08T12:24:26.890Z,25.37
2023-06-08T12:26:53.610Z,25.39
2023-06-08T12:29:22.947Z,25.37
2023-06-08T12:31:49.924Z,25.37
2023-06-08T12:34:16.467Z,25.39
2023-06-08T12:36:42.915Z,25.36
2023-06-08T12:39:09.446Z,25.40
2023-06-08T12:41:35.949Z,25.40
2023-06-08T12:44:02.489Z,25.40
2023-06-08T12:46:30.196Z,25.39
2023-06-08T12:48:58.820Z,25.41
2023-06-08T12:51:25.366Z,25.42
2023-06-08T12:53:52.034Z,25.41
2023-06-08T12:56:18.491Z,25.46
2023-06-08T12:58:44.916Z,25.50
2023-06-08T13:01:11.569Z,25.49
2023-06-08T13:03:38.391Z,25.47
2023-06-08T13:06:05.330Z,25.46
2023-06-08T13:08:31.832Z,25.47
2023-06-08T13:10:58.607Z,25.53
2023-06-08T13:13:27.123Z,25.60
2023-06-08T13:15:55.286Z,25.65
2023-06-08T13:18:25.582Z,25.67
2023-06-08T13:20:55.288Z,25.67
2023-06-08T13:23:21.999Z,25.66
2023-06-08T13:25:48.394Z,25.69
2023-06-08T13:28:14.798Z,25.68
2023-06-08T13:30:41.372Z,25.64
2023-06-08T13:33:07.861Z,25.61
2023-06-08T13:35:34.471Z,25.61
2023-06-08T13:38:00.842Z,25.61
2023-06-08T13:40:33.023Z,25.60
2023-06-08T13:43:00.825Z,25.63
2023-06-08T13:45:27.350Z,25.61
2023-06-08T13:47:55.445Z,25.58
2023-06-08T13:50:24.972Z,25.57
2023-06-08T13:52:51.488Z,25.56
2023-06-08T13:55:18.744Z,25.52
2023-06-08T13:57:45.276Z,25.53
2023-06-08T14:00:12.161Z,25.55
2023-06-08T14:02:39.200Z,25.56
2023-06-08T14:05:06.422Z,25.55
2023-06-08T14:07:33.063Z,25.54
2023-06-08T14:10:00.333Z,25.54
2023-06-08T14:12:27.260Z,25.55
2023-06-08T14:14:53.666Z,25.55
2023-06-08T14:17:20.104Z,25.55
2023-06-08T14:19:47.221Z,25.56
2023-06-08T14:22:15.257Z,25.58
2023-06-08T14:24:41.781Z,25.56
2023-06-08T14:27:08.216Z,25.56
2023-06-08T14:29:34.605Z,25.56
2023-06-08T14:32:01.819Z,25.57
2023-06-08T14:34:28.394Z,25.59
2023-06-08T14:36:54.919Z,25.57
2023-06-08T14:39:21.497Z,25.57
2023-06-08T14:41:48.121Z,25.55
2023-06-08T14:44:14.546Z,25.54
2023-06-08T14:46:41.179Z,25.53
2023-06-08T14:49:07.679Z,25.54
2023-06-08T14:51:38.457Z,25.54
2023-06-08T14:54:05.872Z,25.55
2023-06-08T14:56:32.311Z,25.57
2023-06-08T14:58:59.035Z,25.62
2023-06-08T15:01:25.511Z,25.60
2023-06-08T15:03:52.150Z,25.60
2023-06-08T15:06:18.635Z,25.59
2023-06-08T15:08:45.351Z,25.61
2023-06-08T15:11:11.904Z,25.60
2023-06-08T15:13:43.327Z,25.62
2023-06-08T15:16:09.935Z,25.64
2023-06-08T15:18:36.369Z,25.64
2023-06-08T15:21:02.963Z,25.67
2023-06-08T15:23:29.410Z,25.70
2023-06-08T15:25:55.941Z,25.74
2023-06-08T15:28:22.579Z,25.73
2023-06-08T15:30:49.064Z,25.73
2023-06-08T15:33:15.899Z,25.72
2023-06-08T15:35:42.582Z,25.71
2023-06-08T15:38:11.086Z,25.70
2023-06-08T15:40:37.827Z,25.69
2023-06-08T15:43:04.240Z,25.68
2023-06-08T15:45:30.919Z,25.68
2023-06-08T15:47:57.355Z,25.67
2023-06-08T15:50:23.909Z,25.69
2023-06-08T15:52:50.483Z,25.67
2023-06-08T15:55:17.369Z,25.68
2023-06-08T15:57:44.047Z,25.68
2023-06-08T16:00:11.128Z,25.68
2023-06-08T16:02:38.395Z,25.67
2023-06-08T16:05:06.583Z,25.67
2023-06-08T16:07:33.342Z,25.66
2023-06-08T16:10:02.313Z,25.66
2023-06-08T16:12:28.793Z,25.65
2023-06-08T16:14:59.560Z,25.66
2023-06-08T16:17:26.113Z,25.69
2023-06-08T16:19:52.831Z,25.71
2023-06-08T16:22:19.243Z,25.71
2023-06-08T16:24:45.776Z,25.73
2023-06-08T16:27:12.385Z,25.75
2023-06-08T16:29:38.837Z,25.74
2023-06-08T16:32:05.681Z,25.77
2023-06-08T16:34:32.288Z,25.74
2023-06-08T16:36:58.869Z,25.74
2023-06-08T16:39:25.386Z,25.77
2023-06-08T16:41:52.191Z,25.76
2023-06-08T16:44:18.881Z,25.75
2023-06-08T16:46:46.032Z,25.75
2023-06-08T16:49:12.904Z,25.77
2023-06-08T16:51:39.413Z,25.77
2023-06-08T16:54:06.514Z,25.80
2023-06-08T16:56:33.458Z,25.81
2023-06-08T16:59:00.281Z,25.81
2023-06-08T17:01:26.972Z,25.84
2023-06-08T17:03:53.689Z,25.83
2023-06-08T17:06:20.171Z,25.85
2023-06-08T17:08:46.875Z,25.86
2023-06-08T17:11:13.407Z,25.83
2023-06-08T17:13:41.485Z,25.86
2023-06-08T17:16:08.111Z,25.86
2023-06-08T17:18:34.917Z,25.83
2023-06-08T17:21:02.355Z,25.82
2023-06-08T17:23:29.257Z,25.82
2023-06-08T17:25:55.838Z,25.80
2023-06-08T17:28:22.346Z,25.80
2023-06-08T17:30:48.857Z,25.82
2023-06-08T17:33:15.603Z,25.84
2023-06-08T17:35:42.025Z,25.82
2023-06-08T17:38:09.100Z,25.82
2023-06-08T17:40:35.922Z,25.83
2023-06-08T17:43:02.525Z,25.83
2023-06-08T17:45:29.196Z,25.82
2023-06-08T17:47:58.097Z,25.80
2023-06-08T17:50:25.179Z,25.81
2023-06-08T17:53:13.517Z,25.80
2023-06-08T17:55:40.260Z,25.79
2023-06-08T17:58:08.864Z,25.78
2023-06-08T18:00:35.467Z,25.75
2023-06-08T18:03:02.046Z,25.75
2023-06-08T18:05:32.453Z,25.78
2023-06-08T18:07:59.493Z,25.78
2023-06-08T18:10:26.518Z,25.78
2023-06-08T18:12:53.121Z,25.79
2023-06-08T18:15:19.651Z,25.79
2023-06-08T18:17:46.232Z,25.80
2023-06-08T18:20:12.771Z,25.80
2023-06-08T18:22:41.068Z,25.78
2023-06-08T18:25:07.984Z,25.79
2023-06-08T18:27:36.654Z,25.78
2023-06-08T18:30:07.743Z,25.77
2023-06-08T18:32:36.076Z,25.76
2023-06-08T18:35:02.617Z,25.76
2023-06-08T18:37:29.818Z,25.76
2023-06-08T18:40:00.606Z,25.75
2023-06-08T18:42:27.230Z,25.77
2023-06-08T18:44:56.606Z,25.76
2023-06-08T18:47:24.081Z,25.75
2023-06-08T18:49:50.713Z,25.75
2023-06-08T18:52:18.301Z,25.75
2023-06-08T18:54:46.790Z,25.74
2023-06-08T18:57:13.603Z,25.73
2023-06-08T18:59:40.066Z,25.73
2023-06-08T19:02:06.517Z,25.73
2023-06-08T19:04:33.301Z,25.73
2023-06-08T19:06:59.821Z,25.71
2023-06-08T19:09:26.393Z,25.70
2023-06-08T19:11:53.134Z,25.71
2023-06-08T19:14:21.046Z,25.71
2023-06-08T19:16:49.805Z,25.70
2023-06-08T19:19:19.957Z,25.68
2023-06-08T19:21:46.766Z,25.67
2023-06-08T19:24:13.321Z,25.66
2023-06-08T19:26:40.318Z,25.66
2023-06-08T19:29:07.460Z,25.65
2023-06-08T19:31:34.165Z,25.65
2023-06-08T19:34:01.356Z,25.64
2023-06-08T19:36:27.930Z,25.65
2023-06-08T19:38:54.905Z,25.64
2023-06-08T19:41:22.055Z,25.64
2023-06-08T19:43:51.615Z,25.65
2023-06-08T19:46:18.738Z,25.63
2023-06-08T19:48:45.750Z,25.62
2023-06-08T19:51:12.307Z,25.61
2023-06-08T19:53:38.920Z,25.59
2023-06-08T19:56:05.803Z,25.60
2023-06-08T19:58:32.918Z,25.59
2023-06-08T20:00:59.694Z,25.59
2023-06-08T20:03:27.698Z,25.57
2023-06-08T20:08:44.675Z,25.56
2023-06-08T20:11:11.293Z,25.56
2023-06-08T20:13:37.790Z,25.55
2023-06-08T20:16:04.355Z,25.54
2023-06-08T20:18:30.844Z,25.54
2023-06-08T20:20:57.483Z,25.54
2023-06-08T20:23:24.294Z,25.54
2023-06-08T20:25:50.840Z,25.51
2023-06-08T20:28:17.687Z,25.50
2023-06-08T20:30:44.243Z,25.50
2023-06-08T20:33:11.589Z,25.49
2023-06-08T20:35:39.493Z,25.50
2023-06-08T20:38:06.806Z,25.48
2023-06-08T20:40:33.215Z,25.48
2023-06-08T20:42:59.729Z,25.47
2023-06-08T20:45:26.459Z,25.47
2023-06-08T20:47:53.012Z,25.45
2023-06-08T20:50:19.437Z,25.46
2023-06-08T20:52:45.991Z,25.44
2023-06-08T20:55:12.787Z,25.44
2023-06-08T20:57:39.483Z,25.43
2023-06-08T21:00:09.341Z,25.43
2023-06-08T21:02:36.407Z,25.43
2023-06-08T21:05:03.068Z,25.42
2023-06-08T21:07:29.570Z,25.41
2023-06-08T21:09:56.268Z,25.40
2023-06-08T21:12:23.453Z,25.39
2023-06-08T21:14:49.978Z,25.39
2023-06-08T21:17:16.494Z,25.38
2023-06-08T21:19:42.990Z,25.39
2023-06-08T21:22:09.531Z,25.39
2023-06-08T21:24:36.244Z,25.41
2023-06-08T21:27:02.770Z,25.41
2023-06-08T21:29:29.475Z,25.42
2023-06-08T21:31:56.827Z,25.42
2023-06-08T21:34:23.458Z,25.41
2023-06-08T21:36:50.976Z,25.38
2023-06-08T21:39:17.341Z,25.40
2023-06-08T21:41:43.959Z,25.43
2023-06-08T21:44:10.415Z,25.43
2023-06-08T21:46:36.902Z,25.44
2023-06-08T21:49:03.416Z,25.45
2023-06-08T21:51:29.891Z,25.45
2023-06-08T21:53:57.213Z,25.47
2023-06-08T21:56:24.714Z,25.48
2023-06-08T21:58:51.820Z,25.49
2023-06-08T22:01:18.727Z,25.49
2023-06-08T22:03:45.275Z,25.49
2023-06-08T22:06:12.073Z,25.51
2023-06-08T22:08:39.129Z,25.50
2023-06-08T22:11:05.609Z,25.51
2023-06-08T22:13:34.136Z,25.53
2023-06-08T22:16:01.480Z,25.53
2023-06-08T22:18:28.692Z,25.54
2023-06-08T22:20:55.541Z,25.56
2023-06-08T22:23:22.485Z,25.56
2023-06-08T22:25:49.543Z,25.57
2023-06-08T22:28:17.324Z,25.57
2023-06-08T22:30:45.573Z,25.56
2023-06-08T22:33:14.133Z,25.56
2023-06-08T22:35:40.982Z,25.54
2023-06-08T22:38:08.512Z,25.56
2023-06-08T22:40:35.529Z,25.55
2023-06-08T22:43:02.277Z,25.55
2023-06-08T22:45:29.160Z,25.53
2023-06-08T22:47:55.708Z,25.54
2023-06-08T22:50:25.685Z,25.52
2023-06-08T22:52:57.218Z,25.52
2023-06-08T22:55:23.770Z,25.50
2023-06-08T22:57:50.259Z,25.52
2023-06-08T23:00:16.969Z,25.51
2023-06-08T23:02:43.766Z,25.51
2023-06-08T23:05:11.156Z,25.52
2023-06-08T23:07:38.431Z,25.52
2023-06-08T23:10:05.765Z,25.53
2023-06-08T23:12:34.384Z,25.53
2023-06-08T23:15:04.774Z,25.54
2023-06-08T23:17:31.755Z,25.55
2023-06-08T23:19:58.350Z,25.54
2023-06-08T23:22:26.836Z,25.54
2023-06-08T23:24:53.897Z,25.56
2023-06-08T23:27:23.923Z,25.54
2023-06-08T23:29:50.877Z,25.55
2023-06-08T23:32:17.976Z,25.57
2023-06-08T23:34:45.348Z,25.56
2023-06-08T23:37:12.128Z,25.57
2023-06-08T23:39:38.661Z,25.56
2023-06-08T23:42:05.360Z,25.56
2023-06-08T23:44:32.639Z,25.56
2023-06-08T23:47:00.097Z,25.56
2023-06-08T23:49:26.803Z,25.54
2023-06-08T23:51:53.311Z,25.55
2023-06-08T23:54:19.847Z,25.55
2023-06-08T23:56:46.271Z,25.55
2023-06-08T23:59:12.894Z,25.56
